Latest Weather Observations for Essendon Airport

IDV60801

Issued at 2:02 pm EST Sunday 1 May 2016 (issued every 30 minutes, with the page automatically refreshed every 10 minutes)

About weather observations | Map of weather stations | Latest weather observations for VIC | Other Formats
Station Details ID: 086038 Name: ESSENDON AIRPORT Lat: -37.73 Lon: 144.91 Height: 78.4 m
Data from the previous 72 hours. | See also: Recent months at Essendon Airport
Date/Time
EST
Temp
°C
App
Temp
°C
Dew
Point
Rel
Hum
%
Delta-T
°C
Wind Press
QNH
hPa
Press
MSL
hPa
Rain
since 9 am
mm
Dir
 
Spd
km/h
Gust
km/h
Spd
kts
Gust
kts
01/02:00pm 14.7 8.2 6.3 57 4.1 W 30 43 16 23 1010.2 1010.2 0.0
01/01:30pm 14.6 7.1 6.2 57 4.1 W 35 48 19 26 1010.0 1010.0 0.0
01/01:14pm 14.4 6.8 6.0 57 4.0 W 35 54 19 29 1010.0 1010.0 0.0
01/01:00pm 14.3 6.7 5.9 57 4.0 W 35 46 19 25 1009.9 1009.9 0.0
01/12:30pm 14.3 7.1 7.6 64 3.3 W 35 46 19 25 1009.7 1009.7 0.0
01/12:08pm 12.6 4.7 7.7 72 2.4 W 39 57 21 31 1009.5 1009.5 0.0
01/12:00pm 13.5 4.8 7.7 68 2.9 W 43 59 23 32 1009.5 1009.5 0.0
01/11:54am 13.8 6.2 7.6 66 3.1 W 37 59 20 32 1009.3 1009.3 0.0
01/11:45am 15.0 8.1 7.1 59 3.9 WNW 33 52 18 28 1009.0 1009.0 0.0
01/11:30am 14.7 7.2 6.3 57 4.1 NW 35 52 19 28 1008.8 1008.8 0.0
01/11:28am 14.9 7.9 6.2 56 4.2 NW 32 50 17 27 1008.7 1008.7 0.0
01/11:00am 15.2 8.6 6.2 55 4.4 NW 30 43 16 23 1008.5 1008.5 0.0
01/10:30am 16.6 10.2 7.0 53 4.8 NW 30 43 16 23 1008.3 1008.3 0.0
01/10:00am 15.5 8.0 6.2 54 4.5 NW 35 50 19 27 1007.6 1007.6 0.0
01/09:30am 15.6 7.9 7.1 57 4.2 WNW 37 56 20 30 1007.3 1007.2 0.0
01/09:05am 15.0 9.1 7.3 60 3.8 NW 28 46 15 25 1006.9 1006.8 0.0
01/09:00am 15.1 9.3 8.1 63 3.5 NW 28 41 15 22 1006.9 1006.8 10.0
01/08:30am 14.7 7.7 8.4 66 3.2 NW 35 50 19 27 1006.3 1006.2 10.0
01/08:15am 14.9 8.3 7.9 63 3.5 NW 32 50 17 27 1006.0 1005.9 10.0
01/08:00am 15.0 9.0 8.5 65 3.3 NNW 30 44 16 24 1005.8 1005.7 10.0
01/07:30am 14.7 9.7 9.7 72 2.6 NNW 26 37 14 20 1004.9 1004.8 10.0
01/07:00am 14.4 11.0 10.4 77 2.1 NNW 19 24 10 13 1004.5 1004.4 10.0
01/06:30am 14.3 10.9 11.1 81 1.7 N 20 32 11 17 1004.1 1004.0 10.0
01/06:00am 14.1 10.9 12.0 87 1.1 N 20 30 11 16 1004.0 1003.9 10.0
01/05:30am 14.1 11.7 12.5 90 0.9 N 17 20 9 11 1003.9 1003.8 10.0
01/05:00am 14.1 11.8 13.1 94 0.6 N 17 22 9 12 1003.7 1003.6 10.0
01/04:30am 14.2 12.2 13.9 98 0.2 N 17 22 9 12 1003.3 1003.2 10.0
01/04:00am 14.4 12.0 13.9 97 0.3 N 19 30 10 16 1003.7 1003.6 10.0
01/03:30am 14.6 9.9 14.3 98 0.2 NNW 32 50 17 27 1003.9 1003.8 8.2
01/03:24am 14.7 9.1 14.4 98 0.2 NNW 37 56 20 30 1003.8 1003.7 7.4
01/03:19am 14.8 8.4 14.3 97 0.3 NNW 41 56 22 30 1003.7 1003.6 6.6
01/03:05am 15.3 8.1 14.7 96 0.3 NNW 46 65 25 35 1002.7 1002.6 5.4
01/03:00am 15.1 8.7 14.3 95 0.5 NNW 41 65 22 35 1002.6 1002.5 4.8
01/02:56am 17.8 13.6 16.3 91 0.9 N 33 56 18 30 1002.5 1002.4 2.0
01/02:55am 18.1 14.0 16.4 90 1.0 N 33 48 18 26 1002.5 1002.4 1.8
01/02:33am 20.1 16.1 16.1 78 2.4 N 32 52 17 28 1001.7 1001.7 0.0
01/02:30am 20.0 15.9 16.0 78 2.4 N 32 44 17 24 1002.0 1001.9 0.0
01/02:01am 20.0 14.9 15.8 77 2.5 NNE 37 57 20 31 1003.1 1003.0 0.0
01/02:00am 20.0 14.9 15.8 77 2.5 N 37 50 20 27 1003.2 1003.1 0.0
01/01:30am 19.9 14.8 15.7 77 2.5 N 37 59 20 32 1004.3 1004.2 0.0
01/01:00am 19.8 14.4 16.1 79 2.2 N 39 57 21 31 1004.6 1004.5 0.0
01/12:47am 19.6 14.2 16.1 80 2.1 N 39 59 21 32 1004.8 1004.7 0.0
01/12:30am 19.3 15.2 16.0 81 2.0 N 32 46 17 25 1005.5 1005.4 0.0
01/12:11am 19.4 16.1 16.1 81 2.0 N 28 46 15 25 1005.9 1005.8 0.0
01/12:00am 19.0 14.9 15.9 82 1.9 N 32 43 17 23 1006.4 1006.3 0.0
 
Date/Time
EST
Temp
°C
App
Temp
°C
Dew
Point
Rel
Hum
%
Delta-T
°C
Wind Press
QNH
hPa
Press
MSL
hPa
Rain
since 9 am
mm
Dir
 
Spd
km/h
Gust
km/h
Spd
kts
Gust
kts
30/11:30pm 19.3 16.3 15.8 80 2.1 NNE 26 41 14 22 1007.1 1007.0 0.0
30/11:00pm 19.5 16.0 15.6 78 2.3 N 28 43 15 23 1007.9 1007.8 0.0
30/10:30pm 19.8 17.1 15.7 77 2.4 N 24 35 13 19 1008.4 1008.3 0.0
30/10:00pm 20.2 16.7 15.4 74 2.9 N 28 43 15 23 1009.0 1008.9 0.0
30/09:42pm 20.0 16.5 15.6 76 2.6 N 28 46 15 25 1009.1 1009.0 0.0
30/09:30pm 20.0 16.1 15.6 76 2.6 N 30 39 16 21 1009.2 1009.1 0.0
30/09:00pm 20.0 16.5 15.4 75 2.7 N 28 39 15 21 1009.7 1009.6 0.0
30/08:30pm 20.1 17.0 15.5 75 2.7 N 26 41 14 22 1009.8 1009.7 0.0
30/08:00pm 19.7 17.1 15.8 78 2.3 N 24 32 13 17 1009.9 1009.8 0.0
30/07:30pm 19.7 16.7 15.8 78 2.3 N 26 35 14 19 1009.8 1009.7 0.0
30/07:00pm 19.7 17.7 15.6 77 2.4 N 20 30 11 16 1009.9 1009.8 0.0
30/06:30pm 19.6 18.2 15.5 77 2.4 N 17 24 9 13 1010.2 1010.1 0.0
30/06:00pm 19.8 18.2 15.0 74 2.8 N 17 22 9 12 1010.4 1010.3 0.0
30/05:30pm 20.6 17.6 14.7 69 3.5 N 24 35 13 19 1010.4 1010.3 0.0
30/05:00pm 21.2 17.4 14.6 66 3.9 N 28 41 15 22 1010.4 1010.3 0.0
30/04:30pm 21.9 18.5 14.8 64 4.2 N 26 35 14 19 1010.4 1010.3 0.0
30/04:00pm 22.2 17.6 14.6 62 4.5 N 32 44 17 24 1010.5 1010.4 0.0
30/03:30pm 22.8 18.2 14.6 60 4.9 N 32 43 17 23 1010.7 1010.6 0.0
30/03:00pm 22.3 17.4 14.4 61 4.7 N 33 44 18 24 1010.8 1010.7 0.0
30/02:30pm 22.3 18.2 14.9 63 4.4 N 30 43 16 23 1011.1 1011.0 0.0
30/02:09pm 22.6 18.1 15.0 62 4.5 N 32 50 17 27 1011.4 1011.3 0.0
30/02:00pm 22.8 17.8 15.1 62 4.6 N 35 48 19 26 1011.4 1011.3 0.0
30/01:30pm 22.4 18.6 14.8 62 4.5 N 28 41 15 22 1011.6 1011.6 0.0
30/01:00pm 22.3 18.8 15.6 66 4.0 NNE 28 43 15 23 1012.1 1012.1 0.0
30/12:30pm 22.0 17.3 15.8 68 3.7 N 35 50 19 27 1012.6 1012.6 0.0
30/12:27pm 21.4 17.1 15.3 68 3.6 N 32 50 17 27 1012.5 1012.5 0.0
30/12:00pm 21.3 17.5 15.8 71 3.3 N 30 43 16 23 1013.1 1013.1 0.0
30/11:30am 20.4 16.0 15.2 72 3.1 N 32 44 17 24 1013.8 1013.8 0.0
30/11:00am 20.5 16.2 15.3 72 3.1 N 32 48 17 26 1014.1 1014.1 0.0
30/10:30am 20.4 16.1 15.4 73 3.0 N 32 46 17 25 1014.3 1014.3 0.0
30/10:00am 19.2 15.6 15.3 78 2.3 N 28 39 15 21 1014.6 1014.6 0.0
30/09:30am 19.0 17.2 15.5 80 2.1 N 19 28 10 15 1015.0 1015.0 0.0
30/09:00am 19.3 17.7 16.0 81 2.0 N 19 26 10 14 1014.9 1014.9 6.8
30/08:30am 18.3 16.4 15.7 85 1.5 N 20 28 11 15 1014.7 1014.7 6.8
30/08:00am 17.5 15.6 15.7 89 1.1 N 20 32 11 17 1014.7 1014.7 6.8
30/07:30am 17.2 14.9 15.7 91 0.9 N 22 30 12 16 1014.3 1014.3 6.8
30/07:00am 16.9 14.9 15.6 92 0.8 N 20 28 11 15 1013.7 1013.7 6.8
30/06:30am 16.9 14.6 15.8 93 0.6 N 22 32 12 17 1013.7 1013.7 6.8
30/06:00am 16.8 15.1 15.8 94 0.6 N 19 24 10 13 1013.7 1013.7 6.8
30/05:30am 16.7 14.7 15.6 93 0.6 N 20 26 11 14 1013.6 1013.6 6.8
30/05:00am 16.6 15.0 15.1 91 0.9 N 17 22 9 12 1013.5 1013.5 6.8
30/04:30am 16.8 14.6 15.0 89 1.0 N 20 26 11 14 1013.2 1013.2 6.8
30/04:00am 17.1 15.0 15.1 88 1.2 N 20 28 11 15 1013.1 1013.1 6.8
30/03:30am 17.0 15.1 15.2 89 1.0 N 19 24 10 13 1013.3 1013.3 6.8
30/03:00am 16.5 15.5 14.7 89 1.0 NNW 13 17 7 9 1013.7 1013.7 6.8
30/02:30am 16.8 16.0 15.0 89 1.0 NNW 13 17 7 9 1013.6 1013.6 6.8
30/02:00am 16.9 15.4 15.4 91 0.9 N 17 20 9 11 1013.7 1013.7 6.8
30/01:30am 16.7 16.1 15.6 93 0.6 N 13 17 7 9 1013.7 1013.7 6.8
30/01:00am 17.0 15.7 15.9 93 0.6 N 17 24 9 13 1013.6 1013.6 6.8
30/12:30am 17.1 16.2 15.8 92 0.8 N 15 20 8 11 1013.6 1013.6 6.8
30/12:00am 17.2 15.8 15.5 90 1.0 N 17 22 9 12 1013.6 1013.6 6.8
 
Date/Time
EST
Temp
°C
App
Temp
°C
Dew
Point
Rel
Hum
%
Delta-T
°C
Wind Press
QNH
hPa
Press
MSL
hPa
Rain
since 9 am
mm
Dir
 
Spd
km/h
Gust
km/h
Spd
kts
Gust
kts
29/11:30pm 17.2 14.8 15.5 90 1.0 N 22 30 12 16 1013.4 1013.4 6.8
29/11:00pm 17.3 14.7 15.8 91 0.9 N 24 39 13 21 1014.0 1014.0 6.8
29/10:30pm 17.3 15.6 16.2 93 0.7 N 20 28 11 15 1014.4 1014.4 6.6
29/10:00pm 17.1 15.2 15.8 92 0.8 N 20 28 11 15 1014.4 1014.4 6.6
29/09:30pm 17.3 13.5 15.8 91 0.9 N 30 41 16 22 1014.3 1014.3 6.6
29/09:00pm 17.4 12.6 15.6 89 1.1 N 35 52 19 28 1013.7 1013.7 6.6
29/08:56pm 17.2 12.9 15.5 90 1.0 N 32 50 17 27 1013.8 1013.8 6.6
29/08:30pm 17.1 14.0 15.6 91 0.9 N 26 35 14 19 1013.8 1013.8 6.6
29/08:00pm 17.1 13.9 15.4 90 1.0 N 26 35 14 19 1013.7 1013.7 6.6
29/07:30pm 17.1 15.0 15.1 88 1.2 N 20 28 11 15 1013.7 1013.7 6.6
29/07:00pm 17.0 15.3 14.6 86 1.4 N 17 24 9 13 1013.8 1013.8 6.6
29/06:30pm 17.2 15.0 14.8 86 1.4 N 20 32 11 17 1013.4 1013.4 6.6
29/06:00pm 17.4 14.8 14.9 85 1.5 N 22 32 12 17 1013.2 1013.2 6.6
29/05:30pm 17.5 15.4 15.1 86 1.4 N 20 33 11 18 1012.8 1012.8 6.6
29/05:00pm 17.8 15.3 15.1 84 1.6 N 22 35 12 19 1012.8 1012.8 6.6
29/04:30pm 17.6 16.0 16.1 91 0.9 N 19 26 10 14 1012.9 1012.9 6.6
29/04:00pm 17.4 16.0 16.6 95 0.5 NNE 19 26 10 14 1012.9 1012.9 6.6
29/03:30pm 16.8 16.1 16.5 98 0.2 NNE 15 20 8 11 1013.3 1013.3 6.6
29/03:00pm 16.4 16.4 16.2 99 0.1 NE 11 15 6 8 1013.5 1013.5 6.2
29/02:30pm 16.5 15.8 16.3 99 0.1 NNE 15 20 8 11 1013.8 1013.8 5.4
29/02:00pm 16.5 15.8 16.3 99 0.1 NNE 15 20 8 11 1014.0 1014.0 4.6
29/01:30pm 16.5 16.5 16.2 98 0.2 NNE 11 15 6 8 1014.0 1014.0 3.6
29/01:00pm 16.7 16.9 15.7 94 0.6 NNE 9 13 5 7 1014.1 1014.1 2.6
29/12:30pm 17.0 16.2 15.2 89 1.0 NNE 13 17 7 9 1014.3 1014.3 1.2
29/12:00pm 17.7 16.7 14.6 82 1.8 N 13 19 7 10 1014.8 1014.8 0.0
29/11:30am 18.4 16.0 13.9 75 2.6 N 19 28 10 15 1015.2 1015.1 0.0
29/11:00am 19.3 16.1 13.0 67 3.6 N 22 32 12 17 1015.2 1015.1 0.0
29/10:30am 19.3 15.2 12.6 65 3.8 N 26 33 14 18 1014.8 1014.8 0.0
29/10:00am 18.9 15.5 12.4 66 3.6 N 22 32 12 17 1014.6 1014.6 0.0
29/09:30am 18.4 14.6 12.4 68 3.3 N 24 32 13 17 1015.0 1015.0 0.0
29/09:00am 17.5 14.8 12.8 74 2.6 N 19 24 10 13 1015.6 1015.5 0.2
29/08:30am 17.7 14.0 12.8 73 2.7 N 24 33 13 18 1015.5 1015.4 0.0
29/08:00am 19.6 15.3 10.9 57 4.7 N 24 37 13 20 1015.2 1015.1 0.0
29/07:30am 20.9 15.7 10.1 50 5.9 N 28 37 15 20 1014.2 1014.2 0.0
29/07:00am 21.1 15.0 9.7 48 6.1 NNE 32 46 17 25 1013.6 1013.6 0.0
29/06:58am 21.1 15.8 9.7 48 6.1 N 28 46 15 25 1013.6 1013.6 0.0
29/06:30am 20.7 15.2 9.3 48 6.1 N 28 39 15 21 1013.8 1013.8 0.0
29/06:00am 20.3 16.3 8.9 48 6.0 N 20 28 11 15 1014.3 1014.3 0.0
29/05:30am 20.5 16.1 9.1 48 6.1 N 22 30 12 16 1014.3 1014.3 0.0
29/05:00am 20.4 16.0 9.0 48 6.0 N 22 33 12 18 1014.4 1014.4 0.0
29/04:30am 19.2 15.9 9.7 54 5.1 N 17 20 9 11 1014.4 1014.4 0.0
29/04:00am 19.4 14.8 9.6 53 5.2 N 24 32 13 17 1014.6 1014.6 0.0
29/03:30am 20.0 17.1 9.6 51 5.6 N 15 20 8 11 1014.5 1014.5 0.0
29/03:00am 19.5 16.9 9.4 52 5.4 N 13 20 7 11 1014.6 1014.6 0.0
29/02:30am 19.5 16.5 9.4 52 5.4 NNE 15 24 8 13 1015.0 1015.0 0.0
29/02:00am 19.8 16.8 9.4 51 5.5 N 15 24 8 13 1015.4 1015.3 0.0
29/01:30am 20.0 16.8 9.9 52 5.4 N 17 22 9 12 1015.5 1015.4 0.0
29/01:00am 19.6 16.6 10.6 56 4.9 N 17 24 9 13 1015.5 1015.4 0.0
29/12:30am 17.2 16.2 12.3 73 2.7 NNE 9 11 5 6 1015.8 1015.7 0.0
29/12:00am 17.2 16.3 12.7 75 2.5 NE 9 11 5 6 1016.0 1015.9 0.0
 
Date/Time
EST
Temp
°C
App
Temp
°C
Dew
Point
Rel
Hum
%
Delta-T
°C
Wind Press
QNH
hPa
Press
MSL
hPa
Rain
since 9 am
mm
Dir
 
Spd
km/h
Gust
km/h
Spd
kts
Gust
kts
28/11:30pm 17.0 16.0 13.3 79 2.1 NNE 11 13 6 7 1016.3 1016.2 0.0
28/11:00pm 16.4 16.0 13.1 81 1.8 N 7 9 4 5 1016.9 1016.8 0.0
28/10:30pm 16.7 17.3 13.0 79 2.1 W 2 9 1 5 1017.3 1017.2 0.0
28/10:00pm 16.8 17.3 12.9 78 2.2 SSW 2 7 1 4 1017.8 1017.7 0.0
28/09:30pm 17.4 17.0 13.1 76 2.4 S 7 9 4 5 1017.6 1017.5 0.0
28/09:00pm 17.8 16.7 13.1 74 2.6 S 11 15 6 8 1017.5 1017.4 0.0
28/08:30pm 17.5 16.7 13.0 75 2.5 SSW 9 11 5 6 1017.3 1017.2 0.0
28/08:00pm 17.9 16.8 13.0 73 2.8 SSW 11 15 6 8 1017.3 1017.2 0.0
28/07:30pm 18.6 17.7 12.6 68 3.4 SW 9 17 5 9 1017.1 1017.0 0.0
28/07:00pm 19.4 19.9 11.7 61 4.3 CALM 0 0 0 0 1016.8 1016.7 0.0
28/06:30pm 19.6 19.1 12.1 62 4.2 ENE 6 11 3 6 1016.5 1016.4 0.0
28/06:00pm 20.0 19.4 12.3 61 4.3 SE 7 9 4 5 1016.3 1016.2 0.0
28/05:30pm 20.9 20.8 12.1 57 4.9 SE 4 7 2 4 1016.3 1016.2 0.0
28/05:00pm 22.2 21.0 11.6 51 5.9 SSW 9 11 5 6 1016.3 1016.2 0.0
28/04:30pm 22.9 21.9 11.0 47 6.6 SSE 7 11 4 6 1016.4 1016.3 0.0
28/04:00pm 23.1 22.2 11.5 48 6.5 SSW 7 11 4 6 1016.5 1016.4 0.0
28/03:30pm 23.8 23.0 11.8 47 6.8 SW 7 11 4 6 1016.7 1016.6 0.0
28/03:00pm 24.4 24.9 11.7 45 7.2 CALM 0 7 0 4 1016.8 1016.7 0.0
28/02:30pm 24.2 23.6 12.2 47 6.9 WNW 7 11 4 6 1016.9 1016.8 0.0

Other Formats:

Comma delimited format used in spreadsheet applications
http://www.bom.gov.au/fwo/IDV60801/IDV60801.95866.axf

JavaScript Object Notation format (JSON) in row-major order
http://www.bom.gov.au/fwo/IDV60801/IDV60801.95866.json